sensor_id;sensor_type;location;lat;lon;timestamp;temperature;humidity
30300;DHT22;17110;52.602;12.998;2024-02-14T00:03:27;1.20;99.90
30300;DHT22;17110;52.602;12.998;2024-02-14T00:08:28;1.20;99.90
30300;DHT22;17110;52.602;12.998;2024-02-14T00:13:29;1.10;99.90
30300;DHT22;17110;52.602;12.998;2024-02-14T00:18:31;1.10;99.90
30300;DHT22;17110;52.602;12.998;2024-02-14T00:23:31;1.10;99.90
30300;DHT22;17110;52.602;12.998;2024-02-14T00:28:32;1.10;99.90
30300;DHT22;17110;52.602;12.998;2024-02-14T00:33:34;1.00;99.90
30300;DHT22;17110;52.602;12.998;2024-02-14T00:38:35;1.00;99.90
30300;DHT22;17110;52.602;12.998;2024-02-14T00:43:36;1.10;99.90
30300;DHT22;17110;52.602;12.998;2024-02-14T00:48:38;1.10;99.90
30300;DHT22;17110;52.602;12.998;2024-02-14T00:53:38;1.10;99.90
30300;DHT22;17110;52.602;12.998;2024-02-14T00:58:39;1.10;99.90
30300;DHT22;17110;52.602;12.998;2024-02-14T01:03:41;1.10;99.90
30300;DHT22;17110;52.602;12.998;2024-02-14T01:08:42;1.20;99.90
30300;DHT22;17110;52.602;12.998;2024-02-14T01:13:43;1.20;99.90
30300;DHT22;17110;52.602;12.998;2024-02-14T01:18:45;1.20;99.90
30300;DHT22;17110;52.602;12.998;2024-02-14T01:23:45;1.20;99.90
30300;DHT22;17110;52.602;12.998;2024-02-14T01:28:46;1.30;99.90
30300;DHT22;17110;52.602;12.998;2024-02-14T01:33:48;1.30;99.90
30300;DHT22;17110;52.602;12.998;2024-02-14T01:38:49;1.20;99.90
30300;DHT22;17110;52.602;12.998;2024-02-14T01:43:50;1.30;99.90
30300;DHT22;17110;52.602;12.998;2024-02-14T01:48:52;1.30;99.90
30300;DHT22;17110;52.602;12.998;2024-02-14T01:53:54;1.30;99.90
30300;DHT22;17110;52.602;12.998;2024-02-14T01:58:55;1.40;99.90
30300;DHT22;17110;52.602;12.998;2024-02-14T02:03:57;1.40;99.90
30300;DHT22;17110;52.602;12.998;2024-02-14T02:08:59;1.40;99.90
30300;DHT22;17110;52.602;12.998;2024-02-14T02:14:00;1.40;99.90
30300;DHT22;17110;52.602;12.998;2024-02-14T02:19:02;1.40;99.90
30300;DHT22;17110;52.602;12.998;2024-02-14T02:24:05;1.40;99.90
30300;DHT22;17110;52.602;12.998;2024-02-14T02:29:05;1.50;99.90
30300;DHT22;17110;52.602;12.998;2024-02-14T02:34:06;1.60;99.90
30300;DHT22;17110;52.602;12.998;2024-02-14T02:39:08;1.50;99.90
30300;DHT22;17110;52.602;12.998;2024-02-14T02:44:09;1.50;99.90
30300;DHT22;17110;52.602;12.998;2024-02-14T02:49:10;1.50;99.90
30300;DHT22;17110;52.602;12.998;2024-02-14T02:54:12;1.40;99.90
30300;DHT22;17110;52.602;12.998;2024-02-14T02:59:12;1.40;99.90
30300;DHT22;17110;52.602;12.998;2024-02-14T03:04:13;1.40;99.90
30300;DHT22;17110;52.602;12.998;2024-02-14T03:09:15;1.40;99.90
30300;DHT22;17110;52.602;12.998;2024-02-14T03:14:16;1.40;99.90
30300;DHT22;17110;52.602;12.998;2024-02-14T03:19:17;1.40;99.90
30300;DHT22;17110;52.602;12.998;2024-02-14T03:24:19;1.50;99.90
30300;DHT22;17110;52.602;12.998;2024-02-14T03:29:19;1.60;99.90
30300;DHT22;17110;52.602;12.998;2024-02-14T03:34:20;1.60;99.90
30300;DHT22;17110;52.602;12.998;2024-02-14T03:39:22;1.70;99.90
30300;DHT22;17110;52.602;12.998;2024-02-14T03:44:23;1.80;99.90
30300;DHT22;17110;52.602;12.998;2024-02-14T03:49:24;1.90;99.90
30300;DHT22;17110;52.602;12.998;2024-02-14T03:54:26;1.80;99.90
30300;DHT22;17110;52.602;12.998;2024-02-14T03:59:26;1.80;99.90
30300;DHT22;17110;52.602;12.998;2024-02-14T04:04:27;1.90;99.90
30300;DHT22;17110;52.602;12.998;2024-02-14T04:09:29;1.90;99.90
30300;DHT22;17110;52.602;12.998;2024-02-14T04:14:30;2.00;99.90
30300;DHT22;17110;52.602;12.998;2024-02-14T04:19:31;2.10;99.90
30300;DHT22;17110;52.602;12.998;2024-02-14T04:24:34;2.20;99.90
30300;DHT22;17110;52.602;12.998;2024-02-14T04:29:35;2.30;99.90
30300;DHT22;17110;52.602;12.998;2024-02-14T04:34:36;2.40;99.90
30300;DHT22;17110;52.602;12.998;2024-02-14T04:39:38;2.40;99.90
30300;DHT22;17110;52.602;12.998;2024-02-14T04:44:39;2.50;99.90
30300;DHT22;17110;52.602;12.998;2024-02-14T04:49:39;2.50;99.90
30300;DHT22;17110;52.602;12.998;2024-02-14T04:54:41;2.50;99.90
30300;DHT22;17110;52.602;12.998;2024-02-14T04:59:42;2.60;99.90
30300;DHT22;17110;52.602;12.998;2024-02-14T05:04:43;2.60;99.90
30300;DHT22;17110;52.602;12.998;2024-02-14T05:09:45;2.70;99.90
30300;DHT22;17110;52.602;12.998;2024-02-14T05:14:46;2.80;99.90
30300;DHT22;17110;52.602;12.998;2024-02-14T05:19:47;2.90;99.90
30300;DHT22;17110;52.602;12.998;2024-02-14T05:24:49;2.90;99.90
30300;DHT22;17110;52.602;12.998;2024-02-14T05:29:49;3.00;99.90
30300;DHT22;17110;52.602;12.998;2024-02-14T05:34:50;3.00;99.90
30300;DHT22;17110;52.602;12.998;2024-02-14T05:39:53;3.10;99.90
30300;DHT22;17110;52.602;12.998;2024-02-14T05:44:53;3.10;99.90
30300;DHT22;17110;52.602;12.998;2024-02-14T05:49:54;3.10;99.90
30300;DHT22;17110;52.602;12.998;2024-02-14T05:54:56;3.20;99.90
30300;DHT22;17110;52.602;12.998;2024-02-14T05:59:57;3.20;99.90
30300;DHT22;17110;52.602;12.998;2024-02-14T06:04:57;3.10;99.90
30300;DHT22;17110;52.602;12.998;2024-02-14T06:09:59;3.10;99.90
30300;DHT22;17110;52.602;12.998;2024-02-14T06:15:00;3.10;99.90
30300;DHT22;17110;52.602;12.998;2024-02-14T06:20:01;3.20;99.90
30300;DHT22;17110;52.602;12.998;2024-02-14T06:25:04;3.20;99.90
30300;DHT22;17110;52.602;12.998;2024-02-14T06:30:06;3.30;99.90
30300;DHT22;17110;52.602;12.998;2024-02-14T06:35:07;3.30;99.90
30300;DHT22;17110;52.602;12.998;2024-02-14T06:40:10;3.40;99.90
30300;DHT22;17110;52.602;12.998;2024-02-14T06:45:11;3.50;99.90
30300;DHT22;17110;52.602;12.998;2024-02-14T06:50:12;3.50;99.90
30300;DHT22;17110;52.602;12.998;2024-02-14T06:55:14;3.60;99.90
30300;DHT22;17110;52.602;12.998;2024-02-14T07:00:15;3.70;99.90
30300;DHT22;17110;52.602;12.998;2024-02-14T07:05:16;3.80;99.90
30300;DHT22;17110;52.602;12.998;2024-02-14T07:10:18;3.90;99.90
30300;DHT22;17110;52.602;12.998;2024-02-14T07:15:19;4.00;99.90
30300;DHT22;17110;52.602;12.998;2024-02-14T07:20:19;4.10;99.90
30300;DHT22;17110;52.602;12.998;2024-02-14T07:25:22;4.20;99.90
30300;DHT22;17110;52.602;12.998;2024-02-14T07:30:22;4.30;99.90
30300;DHT22;17110;52.602;12.998;2024-02-14T07:35:23;4.40;99.90
30300;DHT22;17110;52.602;12.998;2024-02-14T07:40:25;4.70;99.90
30300;DHT22;17110;52.602;12.998;2024-02-14T07:45:26;4.80;99.90
30300;DHT22;17110;52.602;12.998;2024-02-14T07:50:27;5.00;99.90
30300;DHT22;17110;52.602;12.998;2024-02-14T07:55:29;5.10;99.90
30300;DHT22;17110;52.602;12.998;2024-02-14T08:00:29;5.10;99.90
30300;DHT22;17110;52.602;12.998;2024-02-14T08:05:30;5.20;99.90
30300;DHT22;17110;52.602;12.998;2024-02-14T08:10:32;5.40;99.90
30300;DHT22;17110;52.602;12.998;2024-02-14T08:15:33;5.50;99.90
30300;DHT22;17110;52.602;12.998;2024-02-14T08:20:34;5.60;99.90
30300;DHT22;17110;52.602;12.998;2024-02-14T08:25:36;5.70;99.90
30300;DHT22;17110;52.602;12.998;2024-02-14T08:30:36;5.80;99.90
30300;DHT22;17110;52.602;12.998;2024-02-14T08:35:37;5.80;99.90
30300;DHT22;17110;52.602;12.998;2024-02-14T08:40:39;6.00;99.90
30300;DHT22;17110;52.602;12.998;2024-02-14T08:45:40;6.10;99.90
30300;DHT22;17110;52.602;12.998;2024-02-14T08:50:41;6.00;99.90
30300;DHT22;17110;52.602;12.998;2024-02-14T08:55:43;6.00;99.90
30300;DHT22;17110;52.602;12.998;2024-02-14T09:00:44;5.90;99.90
30300;DHT22;17110;52.602;12.998;2024-02-14T09:05:45;5.90;99.90
30300;DHT22;17110;52.602;12.998;2024-02-14T09:10:47;5.80;99.90
30300;DHT22;17110;52.602;12.998;2024-02-14T09:15:48;5.80;99.90
30300;DHT22;17110;52.602;12.998;2024-02-14T09:20:48;5.90;99.90
30300;DHT22;17110;52.602;12.998;2024-02-14T09:25:51;5.80;99.90
30300;DHT22;17110;52.602;12.998;2024-02-14T09:30:51;5.90;99.90
30300;DHT22;17110;52.602;12.998;2024-02-14T09:35:52;5.90;99.90
30300;DHT22;17110;52.602;12.998;2024-02-14T09:41:00;5.90;99.90
30300;DHT22;17110;52.602;12.998;2024-02-14T09:46:03;6.00;99.90
30300;DHT22;17110;52.602;12.998;2024-02-14T09:51:05;6.10;99.90
30300;DHT22;17110;52.602;12.998;2024-02-14T09:56:09;6.20;99.90
30300;DHT22;17110;52.602;12.998;2024-02-14T10:01:10;6.30;99.90
30300;DHT22;17110;52.602;12.998;2024-02-14T10:06:11;6.50;99.90
30300;DHT22;17110;52.602;12.998;2024-02-14T10:11:13;6.60;99.90
30300;DHT22;17110;52.602;12.998;2024-02-14T10:16:14;6.70;99.90
30300;DHT22;17110;52.602;12.998;2024-02-14T10:21:15;6.70;99.90
30300;DHT22;17110;52.602;12.998;2024-02-14T10:26:17;6.80;99.90
30300;DHT22;17110;52.602;12.998;2024-02-14T10:31:18;6.90;99.90
30300;DHT22;17110;52.602;12.998;2024-02-14T10:36:19;6.90;99.90
30300;DHT22;17110;52.602;12.998;2024-02-14T10:41:22;7.10;99.90
30300;DHT22;17110;52.602;12.998;2024-02-14T10:46:23;7.30;99.90
30300;DHT22;17110;52.602;12.998;2024-02-14T10:51:28;7.40;99.90
30300;DHT22;17110;52.602;12.998;2024-02-14T10:56:32;7.40;99.90
30300;DHT22;17110;52.602;12.998;2024-02-14T11:01:33;7.40;99.90
30300;DHT22;17110;52.602;12.998;2024-02-14T11:06:44;7.50;99.90
30300;DHT22;17110;52.602;12.998;2024-02-14T11:11:47;7.60;99.90
30300;DHT22;17110;52.602;12.998;2024-02-14T11:16:48;7.70;99.90
30300;DHT22;17110;52.602;12.998;2024-02-14T11:21:56;7.70;99.90
30300;DHT22;17110;52.602;12.998;2024-02-14T11:26:58;7.70;99.90
30300;DHT22;17110;52.602;12.998;2024-02-14T11:31:59;7.80;99.90
30300;DHT22;17110;52.602;12.998;2024-02-14T11:36:59;7.80;99.90
30300;DHT22;17110;52.602;12.998;2024-02-14T11:42:02;7.70;99.90
30300;DHT22;17110;52.602;12.998;2024-02-14T11:47:03;7.80;99.90
30300;DHT22;17110;52.602;12.998;2024-02-14T11:52:04;7.70;99.90
30300;DHT22;17110;52.602;12.998;2024-02-14T11:57:06;7.80;99.90
30300;DHT22;17110;52.602;12.998;2024-02-14T12:02:07;7.80;99.90
30300;DHT22;17110;52.602;12.998;2024-02-14T12:07:08;7.80;99.90
30300;DHT22;17110;52.602;12.998;2024-02-14T12:12:10;8.00;99.90
30300;DHT22;17110;52.602;12.998;2024-02-14T12:17:11;8.00;99.90
30300;DHT22;17110;52.602;12.998;2024-02-14T12:22:12;8.10;99.90
30300;DHT22;17110;52.602;12.998;2024-02-14T12:27:16;8.20;99.90
30300;DHT22;17110;52.602;12.998;2024-02-14T12:32:17;8.30;99.90
30300;DHT22;17110;52.602;12.998;2024-02-14T12:37:18;8.30;99.90
30300;DHT22;17110;52.602;12.998;2024-02-14T12:42:20;8.40;99.90
30300;DHT22;17110;52.602;12.998;2024-02-14T12:47:21;8.50;99.90
30300;DHT22;17110;52.602;12.998;2024-02-14T12:52:22;8.50;99.90
30300;DHT22;17110;52.602;12.998;2024-02-14T12:57:25;8.50;99.90
30300;DHT22;17110;52.602;12.998;2024-02-14T13:02:25;8.50;99.90
30300;DHT22;17110;52.602;12.998;2024-02-14T13:07:26;8.50;99.90
30300;DHT22;17110;52.602;12.998;2024-02-14T13:12:28;8.50;99.90
30300;DHT22;17110;52.602;12.998;2024-02-14T13:17:29;8.60;99.90
30300;DHT22;17110;52.602;12.998;2024-02-14T13:22:30;8.60;99.90
30300;DHT22;17110;52.602;12.998;2024-02-14T13:27:32;8.70;99.90
30300;DHT22;17110;52.602;12.998;2024-02-14T13:32:32;8.60;99.90
30300;DHT22;17110;52.602;12.998;2024-02-14T13:37:33;8.70;99.90
30300;DHT22;17110;52.602;12.998;2024-02-14T13:42:36;8.80;99.90
30300;DHT22;17110;52.602;12.998;2024-02-14T13:47:36;8.80;99.90
30300;DHT22;17110;52.602;12.998;2024-02-14T13:52:37;8.90;99.90
30300;DHT22;17110;52.602;12.998;2024-02-14T13:57:39;8.90;99.90
30300;DHT22;17110;52.602;12.998;2024-02-14T14:02:40;8.90;99.90
30300;DHT22;17110;52.602;12.998;2024-02-14T14:07:41;9.00;99.90
30300;DHT22;17110;52.602;12.998;2024-02-14T14:12:43;9.00;99.90
30300;DHT22;17110;52.602;12.998;2024-02-14T14:17:44;9.10;99.90
30300;DHT22;17110;52.602;12.998;2024-02-14T14:22:45;9.20;99.90
30300;DHT22;17110;52.602;12.998;2024-02-14T14:27:47;9.20;99.90
30300;DHT22;17110;52.602;12.998;2024-02-14T14:32:47;9.20;99.90
30300;DHT22;17110;52.602;12.998;2024-02-14T14:37:48;9.20;99.90
30300;DHT22;17110;52.602;12.998;2024-02-14T14:42:50;9.40;99.90
30300;DHT22;17110;52.602;12.998;2024-02-14T14:47:51;9.40;99.90
30300;DHT22;17110;52.602;12.998;2024-02-14T14:52:52;9.50;99.90
30300;DHT22;17110;52.602;12.998;2024-02-14T14:57:54;9.60;99.90
30300;DHT22;17110;52.602;12.998;2024-02-14T15:02:55;9.60;99.90
30300;DHT22;17110;52.602;12.998;2024-02-14T15:07:55;9.60;99.90
30300;DHT22;17110;52.602;12.998;2024-02-14T15:12:58;9.60;99.90
30300;DHT22;17110;52.602;12.998;2024-02-14T15:17:59;9.60;99.90
30300;DHT22;17110;52.602;12.998;2024-02-14T15:22:59;9.60;99.90
30300;DHT22;17110;52.602;12.998;2024-02-14T15:28:07;9.60;99.90
30300;DHT22;17110;52.602;12.998;2024-02-14T15:33:08;9.60;99.90
30300;DHT22;17110;52.602;12.998;2024-02-14T15:38:09;9.70;99.90
30300;DHT22;17110;52.602;12.998;2024-02-14T15:43:11;9.70;99.90
30300;DHT22;17110;52.602;12.998;2024-02-14T15:48:12;9.80;99.90
30300;DHT22;17110;52.602;12.998;2024-02-14T15:53:13;9.80;99.90
30300;DHT22;17110;52.602;12.998;2024-02-14T15:58:16;9.80;99.90
30300;DHT22;17110;52.602;12.998;2024-02-14T16:03:16;9.70;99.90
30300;DHT22;17110;52.602;12.998;2024-02-14T16:08:17;9.70;99.90
30300;DHT22;17110;52.602;12.998;2024-02-14T16:13:19;9.80;99.90
30300;DHT22;17110;52.602;12.998;2024-02-14T16:18:20;9.70;99.90
30300;DHT22;17110;52.602;12.998;2024-02-14T16:23:21;9.70;99.90
30300;DHT22;17110;52.602;12.998;2024-02-14T16:28:23;9.70;99.90
30300;DHT22;17110;52.602;12.998;2024-02-14T16:33:24;9.70;99.90
30300;DHT22;17110;52.602;12.998;2024-02-14T16:38:25;9.80;99.90
30300;DHT22;17110;52.602;12.998;2024-02-14T16:43:27;9.60;99.90
30300;DHT22;17110;52.602;12.998;2024-02-14T16:48:28;9.60;99.90
30300;DHT22;17110;52.602;12.998;2024-02-14T16:53:28;9.60;99.90
30300;DHT22;17110;52.602;12.998;2024-02-14T16:58:31;9.70;99.90
30300;DHT22;17110;52.602;12.998;2024-02-14T17:03:31;9.70;99.90
30300;DHT22;17110;52.602;12.998;2024-02-14T17:08:32;9.60;99.90
30300;DHT22;17110;52.602;12.998;2024-02-14T17:13:34;9.60;99.90
30300;DHT22;17110;52.602;12.998;2024-02-14T17:18:35;9.60;99.90
30300;DHT22;17110;52.602;12.998;2024-02-14T17:23:36;9.60;99.90
30300;DHT22;17110;52.602;12.998;2024-02-14T17:28:38;9.50;99.90
30300;DHT22;17110;52.602;12.998;2024-02-14T17:33:39;9.60;99.90
30300;DHT22;17110;52.602;12.998;2024-02-14T17:38:40;9.60;99.90
30300;DHT22;17110;52.602;12.998;2024-02-14T17:43:42;9.60;99.90
30300;DHT22;17110;52.602;12.998;2024-02-14T17:48:43;9.60;99.90
30300;DHT22;17110;52.602;12.998;2024-02-14T17:53:44;9.60;99.90
30300;DHT22;17110;52.602;12.998;2024-02-14T17:58:46;9.60;99.90
30300;DHT22;17110;52.602;12.998;2024-02-14T18:03:47;9.60;99.90
30300;DHT22;17110;52.602;12.998;2024-02-14T18:08:49;9.60;99.90
30300;DHT22;17110;52.602;12.998;2024-02-14T18:13:51;9.70;99.90
30300;DHT22;17110;52.602;12.998;2024-02-14T18:18:52;9.70;99.90
30300;DHT22;17110;52.602;12.998;2024-02-14T18:23:53;9.70;99.90
30300;DHT22;17110;52.602;12.998;2024-02-14T18:28:55;9.60;99.90
30300;DHT22;17110;52.602;12.998;2024-02-14T18:33:56;9.60;99.90
30300;DHT22;17110;52.602;12.998;2024-02-14T18:38:57;9.60;99.90
30300;DHT22;17110;52.602;12.998;2024-02-14T18:43:59;9.50;99.90
30300;DHT22;17110;52.602;12.998;2024-02-14T18:49:00;9.50;99.90
30300;DHT22;17110;52.602;12.998;2024-02-14T18:54:01;9.50;99.90
30300;DHT22;17110;52.602;12.998;2024-02-14T18:59:03;9.50;99.90
30300;DHT22;17110;52.602;12.998;2024-02-14T19:04:04;9.60;99.90
30300;DHT22;17110;52.602;12.998;2024-02-14T19:09:04;9.50;99.90
30300;DHT22;17110;52.602;12.998;2024-02-14T19:14:06;9.50;99.90
30300;DHT22;17110;52.602;12.998;2024-02-14T19:19:07;9.50;99.90
30300;DHT22;17110;52.602;12.998;2024-02-14T19:24:08;9.50;99.90
30300;DHT22;17110;52.602;12.998;2024-02-14T19:29:10;9.60;99.90
30300;DHT22;17110;52.602;12.998;2024-02-14T19:34:11;9.60;99.90
30300;DHT22;17110;52.602;12.998;2024-02-14T19:39:11;9.50;99.90
30300;DHT22;17110;52.602;12.998;2024-02-14T19:44:13;9.60;99.90
30300;DHT22;17110;52.602;12.998;2024-02-14T19:49:14;9.60;99.90
30300;DHT22;17110;52.602;12.998;2024-02-14T19:54:15;9.60;99.90
30300;DHT22;17110;52.602;12.998;2024-02-14T19:59:17;9.60;99.90
30300;DHT22;17110;52.602;12.998;2024-02-14T20:04:18;9.60;99.90
30300;DHT22;17110;52.602;12.998;2024-02-14T20:09:18;9.50;99.90
30300;DHT22;17110;52.602;12.998;2024-02-14T20:14:20;9.60;99.90
30300;DHT22;17110;52.602;12.998;2024-02-14T20:19:21;9.60;99.90
30300;DHT22;17110;52.602;12.998;2024-02-14T20:24:22;9.60;99.90
30300;DHT22;17110;52.602;12.998;2024-02-14T20:29:24;9.60;99.90
30300;DHT22;17110;52.602;12.998;2024-02-14T20:34:25;9.70;99.90
30300;DHT22;17110;52.602;12.998;2024-02-14T20:39:26;9.60;99.90
30300;DHT22;17110;52.602;12.998;2024-02-14T20:44:28;9.60;99.90
30300;DHT22;17110;52.602;12.998;2024-02-14T20:49:28;9.70;99.90
30300;DHT22;17110;52.602;12.998;2024-02-14T20:54:29;9.60;99.90
30300;DHT22;17110;52.602;12.998;2024-02-14T20:59:31;9.60;99.90
30300;DHT22;17110;52.602;12.998;2024-02-14T21:04:32;9.50;99.90
30300;DHT22;17110;52.602;12.998;2024-02-14T21:09:33;9.50;99.90
30300;DHT22;17110;52.602;12.998;2024-02-14T21:14:35;9.50;99.90
30300;DHT22;17110;52.602;12.998;2024-02-14T21:19:35;9.40;99.90
30300;DHT22;17110;52.602;12.998;2024-02-14T21:24:36;9.40;99.90
30300;DHT22;17110;52.602;12.998;2024-02-14T21:29:38;9.40;99.90
30300;DHT22;17110;52.602;12.998;2024-02-14T21:34:39;9.30;99.90
30300;DHT22;17110;52.602;12.998;2024-02-14T21:39:40;9.30;99.90
30300;DHT22;17110;52.602;12.998;2024-02-14T21:44:42;9.40;99.90
30300;DHT22;17110;52.602;12.998;2024-02-14T21:49:42;9.40;99.90
30300;DHT22;17110;52.602;12.998;2024-02-14T21:54:43;9.40;99.90
30300;DHT22;17110;52.602;12.998;2024-02-14T21:59:45;9.40;99.90
30300;DHT22;17110;52.602;12.998;2024-02-14T22:04:46;9.40;99.90
30300;DHT22;17110;52.602;12.998;2024-02-14T22:09:47;9.40;99.90
30300;DHT22;17110;52.602;12.998;2024-02-14T22:14:49;9.40;99.90
30300;DHT22;17110;52.602;12.998;2024-02-14T22:19:50;9.40;99.90
30300;DHT22;17110;52.602;12.998;2024-02-14T22:24:50;9.30;99.90
30300;DHT22;17110;52.602;12.998;2024-02-14T22:29:52;9.30;99.90
30300;DHT22;17110;52.602;12.998;2024-02-14T22:34:53;9.40;99.90
30300;DHT22;17110;52.602;12.998;2024-02-14T22:39:54;9.40;99.90
30300;DHT22;17110;52.602;12.998;2024-02-14T22:44:56;9.30;99.90
30300;DHT22;17110;52.602;12.998;2024-02-14T22:49:56;9.40;99.90
30300;DHT22;17110;52.602;12.998;2024-02-14T22:54:57;9.30;99.90
30300;DHT22;17110;52.602;12.998;2024-02-14T22:59:59;9.30;99.90
30300;DHT22;17110;52.602;12.998;2024-02-14T23:05:00;9.30;99.90
30300;DHT22;17110;52.602;12.998;2024-02-14T23:10:01;9.30;99.90
30300;DHT22;17110;52.602;12.998;2024-02-14T23:15:04;9.40;99.90
30300;DHT22;17110;52.602;12.998;2024-02-14T23:20:06;9.40;99.90
30300;DHT22;17110;52.602;12.998;2024-02-14T23:25:07;9.40;99.90
30300;DHT22;17110;52.602;12.998;2024-02-14T23:30:10;9.40;99.90
30300;DHT22;17110;52.602;12.998;2024-02-14T23:35:11;9.40;99.90
30300;DHT22;17110;52.602;12.998;2024-02-14T23:40:12;9.40;99.90
30300;DHT22;17110;52.602;12.998;2024-02-14T23:45:14;9.40;99.90
30300;DHT22;17110;52.602;12.998;2024-02-14T23:50:15;9.50;99.90
30300;DHT22;17110;52.602;12.998;2024-02-14T23:55:16;9.50;99.90
